Woodville, Louisiana
Current Conditions -  °F | °C
As of 11:35 AM on Tuesday 21 Oct 2014 (Local Time) from KRSN Reporting Station
Clear Clear  
Wind Chill: 74°   Ceiling: Unl
Heat Index: 74°   Visibility: 10mi
Dew Point: 58°   Wind: 3mph
Humidity: 59%   Direction: 50°NE
Pressure: 30.15"   Gusts: NA
Location:  32.5075°N, 92.6828°W
Report Text: KRSN 211635Z AUTO 05003KT 10SM CLR 23/15 A3015 RMK AO2 T02310146
Loading
Personal Weather Stations






























Interactive Weather Map
Tropical Storm Tracking
New forecast layout! Learn more

10-Day Weather Forecast

Advertisements
Track Severe Weather on mobile